createdAt,value
2023-09-05T00:02:10.169Z,99.90
2023-09-05T00:04:40.063Z,99.90
2023-09-05T00:07:06.778Z,99.90
2023-09-05T00:09:37.496Z,99.90
2023-09-05T00:12:08.395Z,99.90
2023-09-05T00:14:36.367Z,99.90
2023-09-05T00:17:05.715Z,99.90
2023-09-05T00:22:01.901Z,99.90
2023-09-05T00:24:37.736Z,99.90
2023-09-05T00:27:08.279Z,99.90
2023-09-05T00:29:34.962Z,99.90
2023-09-05T00:32:06.666Z,99.90
2023-09-05T00:34:35.683Z,99.90
2023-09-05T00:37:06.273Z,99.90
2023-09-05T00:39:35.907Z,99.90
2023-09-05T00:42:11.740Z,99.90
2023-09-05T00:44:41.454Z,99.90
2023-09-05T00:47:08.619Z,99.90
2023-09-05T00:49:43.886Z,99.90
2023-09-05T00:52:11.964Z,99.90
2023-09-05T00:54:39.008Z,99.90
2023-09-05T00:57:07.055Z,99.90
2023-09-05T00:59:33.887Z,99.90
2023-09-05T01:02:00.725Z,99.90
2023-09-05T01:04:36.371Z,99.90
2023-09-05T01:07:57.272Z,99.90
2023-09-05T01:10:35.836Z,99.90
2023-09-05T01:13:05.393Z,99.90
2023-09-05T01:15:32.176Z,99.90
2023-09-05T01:17:59.039Z,99.90
2023-09-05T01:20:44.230Z,99.90
2023-09-05T01:23:18.642Z,99.90
2023-09-05T01:25:46.636Z,99.90
2023-09-05T01:28:14.257Z,99.90
2023-09-05T01:30:42.313Z,99.90
2023-09-05T01:33:11.437Z,99.90
2023-09-05T01:35:38.207Z,99.90
2023-09-05T01:38:05.006Z,99.90
2023-09-05T01:40:31.718Z,99.90
2023-09-05T01:43:00.681Z,99.90
2023-09-05T01:45:29.609Z,99.90
2023-09-05T01:50:23.613Z,99.90
2023-09-05T01:52:52.504Z,99.90
2023-09-05T01:55:19.337Z,99.90
2023-09-05T01:57:46.101Z,99.90
2023-09-05T02:00:19.190Z,99.90
2023-09-05T02:02:46.075Z,99.90
2023-09-05T02:05:15.192Z,99.90
2023-09-05T02:07:44.292Z,99.90
2023-09-05T02:10:11.288Z,99.90
2023-09-05T02:12:38.563Z,99.90
2023-09-05T02:15:08.649Z,99.90
2023-09-05T02:17:35.776Z,99.90
2023-09-05T02:20:02.552Z,99.90
2023-09-05T02:22:31.390Z,99.90
2023-09-05T02:25:00.957Z,99.90
2023-09-05T02:27:28.307Z,99.90
2023-09-05T02:30:00.258Z,99.90
2023-09-05T02:32:30.767Z,99.90
2023-09-05T02:34:58.126Z,99.90
2023-09-05T02:37:24.866Z,99.90
2023-09-05T02:39:51.679Z,99.90
2023-09-05T02:42:20.522Z,99.90
2023-09-05T02:44:54.561Z,99.90
2023-09-05T02:47:24.095Z,99.90
2023-09-05T02:49:53.315Z,99.90
2023-09-05T02:52:24.621Z,99.90
2023-09-05T02:54:55.440Z,99.90
2023-09-05T02:57:22.736Z,99.90
2023-09-05T02:59:55.349Z,99.90
2023-09-05T03:02:30.889Z,99.90
2023-09-05T03:04:59.706Z,99.90
2023-09-05T03:07:28.831Z,99.90
2023-09-05T03:10:00.249Z,99.90
2023-09-05T03:12:27.026Z,99.90
2023-09-05T03:14:53.729Z,99.90
2023-09-05T03:17:22.918Z,99.90
2023-09-05T03:22:19.302Z,99.90
2023-09-05T03:24:48.431Z,99.90
2023-09-05T03:27:15.297Z,99.90
2023-09-05T03:29:42.027Z,99.90
2023-09-05T03:32:11.090Z,99.90
2023-09-05T03:34:37.764Z,99.90
2023-09-05T03:37:06.693Z,99.90
2023-09-05T03:39:33.612Z,99.90
2023-09-05T03:42:00.427Z,99.90
2023-09-05T03:44:27.125Z,99.90
2023-09-05T03:46:56.386Z,99.90
2023-09-05T03:49:25.377Z,99.90
2023-09-05T03:51:52.046Z,99.90
2023-09-05T03:54:18.757Z,99.90
2023-09-05T03:56:50.193Z,99.90
2023-09-05T03:59:19.366Z,99.90
2023-09-05T04:01:51.297Z,99.90
2023-09-05T04:04:18.087Z,99.90
2023-09-05T04:06:44.877Z,99.90
2023-09-05T04:09:11.618Z,99.90
2023-09-05T04:11:38.390Z,99.90
2023-09-05T04:14:05.164Z,99.90
2023-09-05T04:18:59.093Z,99.90
2023-09-05T04:21:25.808Z,99.90
2023-09-05T04:23:52.584Z,99.90
2023-09-05T04:26:20.185Z,99.90
2023-09-05T04:28:46.988Z,99.90
2023-09-05T04:31:19.297Z,99.90
2023-09-05T04:33:48.969Z,99.90
2023-09-05T04:36:20.707Z,99.90
2023-09-05T04:38:50.846Z,99.90
2023-09-05T04:41:24.356Z,99.90
2023-09-05T04:43:51.610Z,99.90
2023-09-05T04:46:20.938Z,99.90
2023-09-05T04:48:52.543Z,99.90
2023-09-05T04:51:19.323Z,99.90
2023-09-05T04:53:46.184Z,99.90
2023-09-05T04:56:12.880Z,99.90
2023-09-05T04:58:39.684Z,99.90
2023-09-05T05:01:06.473Z,99.90
2023-09-05T05:03:34.742Z,99.90
2023-09-05T05:06:04.740Z,99.90
2023-09-05T05:08:31.727Z,99.90
2023-09-05T05:11:03.206Z,99.90
2023-09-05T05:13:32.839Z,99.90
2023-09-05T05:16:02.019Z,99.90
2023-09-05T05:18:31.116Z,99.90
2023-09-05T05:20:58.303Z,99.90
2023-09-05T05:23:27.512Z,99.90
2023-09-05T05:26:02.745Z,99.90
2023-09-05T05:28:29.667Z,99.90
2023-09-05T05:30:56.434Z,99.90
2023-09-05T05:33:27.886Z,99.90
2023-09-05T05:35:56.971Z,99.90
2023-09-05T05:38:24.105Z,99.90
2023-09-05T05:40:53.419Z,99.90
2023-09-05T05:43:20.291Z,99.90
2023-09-05T05:45:50.855Z,99.90
2023-09-05T05:48:17.672Z,99.90
2023-09-05T05:50:44.604Z,99.90
2023-09-05T05:53:13.904Z,99.90
2023-09-05T05:55:43.117Z,99.90
2023-09-05T05:58:14.931Z,99.90
2023-09-05T06:00:47.221Z,99.90
2023-09-05T06:03:14.080Z,99.90
2023-09-05T06:05:40.816Z,99.90
2023-09-05T06:08:09.878Z,99.90
2023-09-05T06:13:08.737Z,99.90
2023-09-05T06:15:35.827Z,99.90
2023-09-05T06:18:03.303Z,99.90
2023-09-05T06:22:57.176Z,99.90
2023-09-05T06:25:28.866Z,99.90
2023-09-05T06:27:57.780Z,99.90
2023-09-05T06:30:26.764Z,99.90
2023-09-05T06:32:55.879Z,99.90
2023-09-05T06:35:22.639Z,99.90
2023-09-05T06:37:57.871Z,99.90
2023-09-05T06:40:24.886Z,99.90
2023-09-05T06:42:54.372Z,99.90
2023-09-05T06:45:22.128Z,99.90
2023-09-05T06:47:49.086Z,99.90
2023-09-05T06:50:15.953Z,99.90
2023-09-05T06:52:42.702Z,99.90
2023-09-05T06:55:09.779Z,99.90
2023-09-05T07:00:07.140Z,99.90
2023-09-05T07:02:36.500Z,99.90
2023-09-05T07:05:05.743Z,99.90
2023-09-05T07:10:00.335Z,99.90
2023-09-05T07:12:29.566Z,99.90
2023-09-05T07:14:56.309Z,99.90
2023-09-05T07:17:23.094Z,99.90
2023-09-05T07:19:54.568Z,99.90
2023-09-05T07:22:26.319Z,99.90
2023-09-05T07:24:53.042Z,99.90
2023-09-05T07:27:22.764Z,99.90
2023-09-05T07:29:52.178Z,99.90
2023-09-05T07:32:18.978Z,99.90
2023-09-05T07:34:45.704Z,99.90
2023-09-05T07:37:17.123Z,99.90
2023-09-05T07:39:51.114Z,99.90
2023-09-05T07:42:18.045Z,99.90
2023-09-05T07:44:47.492Z,99.90
2023-09-05T07:47:14.234Z,99.90
2023-09-05T07:49:43.520Z,99.90
2023-09-05T07:52:10.208Z,99.90
2023-09-05T07:54:37.085Z,99.90
2023-09-05T07:59:33.898Z,99.90
2023-09-05T08:02:03.163Z,99.90
2023-09-05T08:04:31.721Z,99.90
2023-09-05T08:07:02.036Z,99.90
2023-09-05T08:11:55.950Z,99.90
2023-09-05T08:14:22.890Z,99.90
2023-09-05T08:16:52.725Z,99.90
2023-09-05T08:19:19.456Z,99.90
2023-09-05T08:21:46.133Z,99.90
2023-09-05T08:24:12.930Z,99.90
2023-09-05T08:26:40.319Z,99.90
2023-09-05T08:29:09.374Z,99.90
2023-09-05T08:31:38.364Z,99.90
2023-09-05T08:34:07.641Z,99.90
2023-09-05T08:36:36.933Z,99.90
2023-09-05T08:39:06.615Z,99.90
2023-09-05T08:41:35.705Z,99.90
2023-09-05T08:44:07.225Z,99.90
2023-09-05T08:46:35.232Z,99.90
2023-09-05T08:49:06.875Z,99.90
2023-09-05T08:51:39.778Z,99.90
2023-09-05T08:54:10.169Z,99.90
2023-09-05T08:56:41.812Z,99.90
2023-09-05T08:59:10.830Z,99.90
2023-09-05T09:01:42.482Z,99.90
2023-09-05T09:04:13.194Z,99.80
2023-09-05T09:06:43.787Z,99.90
2023-09-05T09:09:37.500Z,99.40
2023-09-05T09:12:07.782Z,98.50
2023-09-05T09:14:39.754Z,99.50
2023-09-05T09:17:06.801Z,99.60
2023-09-05T09:19:34.107Z,99.70
2023-09-05T09:22:05.150Z,99.40
2023-09-05T09:24:44.078Z,99.50
2023-09-05T09:27:19.973Z,97.90
2023-09-05T09:29:56.409Z,97.70
2023-09-05T09:32:25.991Z,99.30
2023-09-05T09:34:56.163Z,98.30
2023-09-05T09:37:28.723Z,98.70
2023-09-05T09:40:07.885Z,98.50
2023-09-05T09:42:38.100Z,96.20
2023-09-05T09:45:15.573Z,97.90
2023-09-05T09:47:50.114Z,97.90
2023-09-05T09:50:21.185Z,98.10
2023-09-05T09:52:54.175Z,98.90
2023-09-05T09:55:26.032Z,97.60
2023-09-05T09:58:07.809Z,94.50
2023-09-05T10:00:36.253Z,97.10
2023-09-05T10:03:05.882Z,97.00
2023-09-05T10:05:33.663Z,95.70
2023-09-05T10:08:04.085Z,98.00
2023-09-05T10:10:31.974Z,98.20
2023-09-05T10:13:02.882Z,96.70
2023-09-05T10:15:34.658Z,96.70
2023-09-05T10:18:02.797Z,97.90
2023-09-05T10:20:34.995Z,98.60
2023-09-05T10:23:06.469Z,98.00
2023-09-05T10:25:37.945Z,98.20
2023-09-05T10:28:09.784Z,95.80
2023-09-05T10:30:51.193Z,96.40
2023-09-05T10:33:18.726Z,97.10
2023-09-05T10:35:45.980Z,96.00
2023-09-05T10:38:15.816Z,96.00
2023-09-05T10:40:45.034Z,95.90
2023-09-05T10:43:20.146Z,94.80
2023-09-05T10:46:00.081Z,95.60
2023-09-05T10:48:42.080Z,94.80
2023-09-05T10:51:14.614Z,95.10
2023-09-05T10:53:48.192Z,93.50
2023-09-05T10:56:41.436Z,91.70
2023-09-05T10:59:31.017Z,91.80
2023-09-05T11:02:07.576Z,93.50
2023-09-05T11:04:38.470Z,94.10
2023-09-05T11:07:11.326Z,93.70
2023-09-05T11:09:49.537Z,93.10
2023-09-05T11:12:20.447Z,92.90
2023-09-05T11:14:47.491Z,92.40
2023-09-05T11:17:18.128Z,94.00
2023-09-05T11:19:52.245Z,91.40
2023-09-05T11:22:23.503Z,92.50
2023-09-05T11:24:53.170Z,92.60
2023-09-05T11:27:30.053Z,91.50
2023-09-05T11:30:00.086Z,91.70
2023-09-05T11:32:36.262Z,92.30
2023-09-05T11:35:06.668Z,88.20
2023-09-05T11:37:34.320Z,91.40
2023-09-05T11:40:21.273Z,91.60
2023-09-05T11:42:47.985Z,91.90
2023-09-05T11:45:24.541Z,90.60
2023-09-05T11:47:53.931Z,91.20
2023-09-05T11:50:23.855Z,89.40
2023-09-05T11:52:56.912Z,83.90
2023-09-05T11:55:25.183Z,90.40
2023-09-05T11:57:57.044Z,90.60
2023-09-05T12:00:24.991Z,90.30
2023-09-05T12:02:58.878Z,90.90
2023-09-05T12:05:26.289Z,91.70
2023-09-05T12:07:55.927Z,90.00
2023-09-05T12:10:27.968Z,89.30
2023-09-05T12:12:58.989Z,88.60
2023-09-05T12:15:36.396Z,84.30
2023-09-05T12:18:05.495Z,90.90
2023-09-05T12:20:36.358Z,90.80
2023-09-05T12:23:09.190Z,90.40
2023-09-05T12:25:50.652Z,84.70
2023-09-05T12:28:23.317Z,90.00
2023-09-05T12:30:54.488Z,90.20
2023-09-05T12:33:21.719Z,90.30
2023-09-05T12:35:48.675Z,90.10
2023-09-05T12:38:15.980Z,85.90
2023-09-05T12:40:45.005Z,86.70
2023-09-05T12:43:11.866Z,82.10
2023-09-05T12:45:38.585Z,87.60
2023-09-05T12:48:08.673Z,82.90
2023-09-05T12:50:38.294Z,87.00
2023-09-05T12:53:11.110Z,88.80
2023-09-05T12:55:38.771Z,87.80
2023-09-05T12:58:10.888Z,89.50
2023-09-05T13:00:41.360Z,82.20
2023-09-05T13:03:08.780Z,80.90
2023-09-05T13:05:35.765Z,86.50
2023-09-05T13:08:03.414Z,88.00
2023-09-05T13:10:30.357Z,86.30
2023-09-05T13:13:00.906Z,86.90
2023-09-05T13:15:29.063Z,87.30
2023-09-05T13:17:58.169Z,88.20
2023-09-05T13:20:25.069Z,90.40
2023-09-05T13:22:52.348Z,87.50
2023-09-05T13:25:20.713Z,85.30
2023-09-05T13:27:48.460Z,87.10
2023-09-05T13:30:16.086Z,87.60
2023-09-05T13:32:43.058Z,89.20
2023-09-05T13:35:10.535Z,84.90
2023-09-05T13:37:37.712Z,85.20
2023-09-05T13:40:05.465Z,87.10
2023-09-05T13:47:38.759Z,87.10
2023-09-05T13:50:07.352Z,88.50
2023-09-05T13:52:34.349Z,89.10
2023-09-05T13:55:01.264Z,87.00
2023-09-05T13:57:33.444Z,82.60
2023-09-05T14:00:02.481Z,81.40
2023-09-05T14:02:30.448Z,86.80
2023-09-05T14:05:02.188Z,83.80
2023-09-05T14:07:28.930Z,84.30
2023-09-05T14:09:58.065Z,86.80
2023-09-05T14:12:24.932Z,87.30
2023-09-05T14:17:18.887Z,83.40
2023-09-05T14:19:45.582Z,84.00
2023-09-05T14:22:12.248Z,84.00
2023-09-05T14:24:39.097Z,83.20
2023-09-05T14:27:08.154Z,83.70
2023-09-05T14:29:37.948Z,83.60
2023-09-05T14:32:05.079Z,83.40
2023-09-05T14:34:31.939Z,83.00
2023-09-05T14:37:00.889Z,84.70
2023-09-05T14:39:27.667Z,84.60
2023-09-05T14:41:54.527Z,85.80
2023-09-05T14:44:21.512Z,84.40
2023-09-05T14:46:50.801Z,83.10
2023-09-05T14:49:17.616Z,82.30
2023-09-05T14:51:44.325Z,85.20
2023-09-05T14:54:14.264Z,82.20
2023-09-05T14:56:42.173Z,86.60
2023-09-05T14:59:08.877Z,82.40
2023-09-05T15:01:35.689Z,85.10
2023-09-05T15:04:02.622Z,83.40
2023-09-05T15:06:29.701Z,84.50
2023-09-05T15:08:56.550Z,82.60
2023-09-05T15:11:23.315Z,85.50
2023-09-05T15:13:50.038Z,81.80
2023-09-05T15:16:16.790Z,85.60
2023-09-05T15:18:46.045Z,84.30
2023-09-05T15:21:15.551Z,84.80
2023-09-05T15:23:42.367Z,84.30
2023-09-05T15:26:12.132Z,85.90
2023-09-05T15:28:44.666Z,81.00
2023-09-05T15:33:41.161Z,82.50
2023-09-05T15:36:10.593Z,83.10
2023-09-05T15:38:37.723Z,84.80
2023-09-05T15:41:04.471Z,80.90
2023-09-05T15:43:35.879Z,78.90
2023-09-05T15:46:03.186Z,80.80
2023-09-05T15:48:31.054Z,80.70
2023-09-05T15:51:00.064Z,83.70
2023-09-05T15:53:26.821Z,79.60
2023-09-05T15:55:54.967Z,81.50
2023-09-05T15:58:21.805Z,83.50
2023-09-05T16:00:52.632Z,82.40
2023-09-05T16:03:20.699Z,79.30
2023-09-05T16:08:17.992Z,82.40
2023-09-05T16:10:46.046Z,82.00
2023-09-05T16:13:15.205Z,80.90
2023-09-05T16:15:42.094Z,80.80
2023-09-05T16:18:10.673Z,84.10
2023-09-05T16:20:54.036Z,80.50
2023-09-05T16:23:22.524Z,79.50
2023-09-05T16:25:53.925Z,80.00
2023-09-05T16:28:20.770Z,78.80
2023-09-05T16:30:50.502Z,82.50
2023-09-05T16:33:17.520Z,82.20
2023-09-05T16:35:46.095Z,81.20
2023-09-05T16:40:42.380Z,75.50
2023-09-05T16:43:09.114Z,78.20
2023-09-05T16:45:37.218Z,76.00
2023-09-05T16:48:04.976Z,80.90
2023-09-05T16:50:33.125Z,83.10
2023-09-05T16:52:59.862Z,78.70
2023-09-05T16:55:26.607Z,77.10
2023-09-05T16:57:53.401Z,80.90
2023-09-05T17:00:24.953Z,80.00
2023-09-05T17:02:51.791Z,80.20
2023-09-05T17:05:18.591Z,81.10
2023-09-05T17:07:47.841Z,81.70
2023-09-05T17:10:16.537Z,80.40
2023-09-05T17:12:45.891Z,81.20
2023-09-05T17:15:16.396Z,82.50
2023-09-05T17:20:13.438Z,82.70
2023-09-05T17:22:40.939Z,87.10
2023-09-05T17:25:11.393Z,86.60
2023-09-05T17:27:38.114Z,88.50
2023-09-05T17:30:05.557Z,90.50
2023-09-05T17:32:34.814Z,90.00
2023-09-05T17:35:01.571Z,90.70
2023-09-05T17:37:28.309Z,92.30
2023-09-05T17:39:55.039Z,92.10
2023-09-05T17:42:26.338Z,93.40
2023-09-05T17:44:53.290Z,93.60
2023-09-05T17:47:22.522Z,94.10
2023-09-05T17:49:51.749Z,95.30
2023-09-05T17:52:23.209Z,96.20
2023-09-05T17:54:52.280Z,95.90
2023-09-05T17:57:19.085Z,96.60
2023-09-05T17:59:45.871Z,96.70
2023-09-05T18:02:14.835Z,98.30
2023-09-05T18:04:44.198Z,98.50
2023-09-05T18:07:13.533Z,99.40
2023-09-05T18:12:07.770Z,99.90
2023-09-05T18:14:40.195Z,99.90
2023-09-05T18:19:43.781Z,99.90
2023-09-05T18:22:10.920Z,99.90
2023-09-05T18:27:08.521Z,99.90
2023-09-05T18:29:38.699Z,99.90
2023-09-05T18:34:42.663Z,99.90
2023-09-05T18:37:21.690Z,99.90
2023-09-05T18:42:25.175Z,99.90
2023-09-05T18:44:54.530Z,99.90
2023-09-05T18:47:21.328Z,99.90
2023-09-05T18:49:53.317Z,99.90
2023-09-05T18:52:20.152Z,99.90
2023-09-05T18:57:23.434Z,99.90
2023-09-05T18:59:52.718Z,99.90
2023-09-05T19:02:19.920Z,99.90
2023-09-05T19:04:49.485Z,99.90
2023-09-05T19:07:20.880Z,99.90
2023-09-05T19:09:47.657Z,99.90
2023-09-05T19:12:15.874Z,99.90
2023-09-05T19:14:50.932Z,99.90
2023-09-05T19:17:22.246Z,99.90
2023-09-05T19:19:51.673Z,99.90
2023-09-05T19:22:20.858Z,99.90
2023-09-05T19:24:47.620Z,99.90
2023-09-05T19:27:14.352Z,99.90
2023-09-05T19:32:12.890Z,99.90
2023-09-05T19:34:39.714Z,99.90
2023-09-05T19:37:06.498Z,99.90
2023-09-05T19:39:33.324Z,99.90
2023-09-05T19:42:00.197Z,99.90
2023-09-05T19:44:26.889Z,99.90
2023-09-05T19:46:53.663Z,99.90
2023-09-05T19:49:20.837Z,99.90
2023-09-05T19:51:50.739Z,99.90
2023-09-05T19:54:20.075Z,99.90
2023-09-05T19:56:51.939Z,99.90
2023-09-05T19:59:21.662Z,99.90
2023-09-05T20:01:49.709Z,99.90
2023-09-05T20:04:16.770Z,99.90
2023-09-05T20:06:43.625Z,99.90
2023-09-05T20:09:10.813Z,99.90
2023-09-05T20:11:37.570Z,99.90
2023-09-05T20:16:32.398Z,99.90
2023-09-05T20:19:12.050Z,99.90
2023-09-05T20:21:41.586Z,99.90
2023-09-05T20:24:08.694Z,99.90
2023-09-05T20:29:02.576Z,99.90
2023-09-05T20:31:29.294Z,99.90
2023-09-05T20:33:58.925Z,99.90
2023-09-05T20:36:25.786Z,99.90
2023-09-05T20:38:52.588Z,99.90
2023-09-05T20:41:25.260Z,99.90
2023-09-05T20:43:53.683Z,99.90
2023-09-05T20:46:25.307Z,99.90
2023-09-05T20:48:52.181Z,99.90
2023-09-05T20:51:19.734Z,99.90
2023-09-05T20:53:46.882Z,99.90
2023-09-05T20:56:13.701Z,99.90
2023-09-05T20:58:40.710Z,99.90
2023-09-05T21:01:15.037Z,99.90
2023-09-05T21:03:42.094Z,99.90
2023-09-05T21:06:10.359Z,99.90
2023-09-05T21:08:45.174Z,99.90
2023-09-05T21:11:16.390Z,99.90
2023-09-05T21:13:43.121Z,99.90
2023-09-05T21:16:12.312Z,99.90
2023-09-05T21:18:39.618Z,99.90
2023-09-05T21:21:10.850Z,99.90
2023-09-05T21:23:38.754Z,99.90
2023-09-05T21:26:06.093Z,99.90
2023-09-05T21:28:35.452Z,99.90
2023-09-05T21:31:04.659Z,99.90
2023-09-05T21:33:33.996Z,99.90
2023-09-05T21:36:03.007Z,99.90
2023-09-05T21:38:30.070Z,99.90
2023-09-05T21:40:56.912Z,99.90
2023-09-05T21:43:26.281Z,99.90
2023-09-05T21:45:53.301Z,99.90
2023-09-05T21:48:22.437Z,99.90
2023-09-05T21:50:49.170Z,99.90
2023-09-05T21:53:15.885Z,99.90
2023-09-05T21:58:09.795Z,99.90
2023-09-05T22:00:47.052Z,99.90
2023-09-05T22:03:15.170Z,99.90
2023-09-05T22:05:42.262Z,99.90
2023-09-05T22:08:17.117Z,99.90
2023-09-05T22:10:46.590Z,99.90
2023-09-05T22:13:13.363Z,99.90
2023-09-05T22:15:53.197Z,99.90
2023-09-05T22:18:23.576Z,99.90
2023-09-05T22:23:29.664Z,99.90
2023-09-05T22:25:58.853Z,99.90
2023-09-05T22:28:32.407Z,99.90
2023-09-05T22:30:59.817Z,99.90
2023-09-05T22:33:28.958Z,99.90
2023-09-05T22:36:00.299Z,99.90
2023-09-05T22:38:29.266Z,99.90
2023-09-05T22:40:58.824Z,99.90
2023-09-05T22:43:25.547Z,99.90
2023-09-05T22:45:56.921Z,99.90
2023-09-05T22:48:23.884Z,99.90
2023-09-05T22:50:53.013Z,99.90
2023-09-05T22:53:19.680Z,99.90
2023-09-05T22:55:48.569Z,99.90
2023-09-05T22:58:17.750Z,99.90
2023-09-05T23:00:50.082Z,99.90
2023-09-05T23:03:20.442Z,99.90
2023-09-05T23:05:47.482Z,99.90
2023-09-05T23:08:14.239Z,99.90
2023-09-05T23:10:40.999Z,99.90
2023-09-05T23:13:07.978Z,99.90
2023-09-05T23:15:38.702Z,99.90
2023-09-05T23:18:06.126Z,99.90
2023-09-05T23:20:35.992Z,99.90
2023-09-05T23:23:02.901Z,99.90
2023-09-05T23:25:30.411Z,99.90
2023-09-05T23:27:59.435Z,99.90
2023-09-05T23:30:30.739Z,99.90
2023-09-05T23:32:57.595Z,99.90
2023-09-05T23:35:24.395Z,99.90
2023-09-05T23:37:56.032Z,99.90
2023-09-05T23:40:22.871Z,99.90
2023-09-05T23:42:49.755Z,99.90
2023-09-05T23:45:16.717Z,99.90
2023-09-05T23:47:48.319Z,99.90
2023-09-05T23:50:16.161Z,99.90
2023-09-05T23:52:42.980Z,99.90
2023-09-05T23:55:12.337Z,99.90
2023-09-05T23:57:39.513Z,99.90
